sensor_id;sensor_type;location;lat;lon;timestamp;pressure;altitude;pressure_sealevel;temperature;humidity
5062;BME280;2351;50.812;12.872;2023-02-23T00:02:21;97529.69;;;4.33;93.78
5062;BME280;2351;50.812;12.872;2023-02-23T00:04:54;97529.78;;;4.32;93.95
5062;BME280;2351;50.812;12.872;2023-02-23T00:07:27;97524.78;;;4.29;93.84
5062;BME280;2351;50.812;12.872;2023-02-23T00:09:59;97526.53;;;4.28;93.90
5062;BME280;2351;50.812;12.872;2023-02-23T00:12:30;97525.91;;;4.25;94.04
5062;BME280;2351;50.812;12.872;2023-02-23T00:15:04;97533.88;;;4.23;94.15
5062;BME280;2351;50.812;12.872;2023-02-23T00:17:36;97527.06;;;4.20;94.23
5062;BME280;2351;50.812;12.872;2023-02-23T00:20:12;97531.56;;;4.18;94.26
5062;BME280;2351;50.812;12.872;2023-02-23T00:22:45;97531.56;;;4.18;94.44
5062;BME280;2351;50.812;12.872;2023-02-23T00:25:18;97529.78;;;4.19;94.48
5062;BME280;2351;50.812;12.872;2023-02-23T00:27:50;97525.50;;;4.18;94.65
5062;BME280;2351;50.812;12.872;2023-02-23T00:30:22;97526.31;;;4.18;94.82
5062;BME280;2351;50.812;12.872;2023-02-23T00:32:53;97523.69;;;4.18;95.06
5062;BME280;2351;50.812;12.872;2023-02-23T00:35:26;97516.91;;;4.16;95.01
5062;BME280;2351;50.812;12.872;2023-02-23T00:37:58;97519.91;;;4.10;95.91
5062;BME280;2351;50.812;12.872;2023-02-23T00:40:30;97508.81;;;4.06;96.10
5062;BME280;2351;50.812;12.872;2023-02-23T00:43:02;97517.50;;;4.06;96.19
5062;BME280;2351;50.812;12.872;2023-02-23T00:45:34;97508.81;;;4.06;96.36
5062;BME280;2351;50.812;12.872;2023-02-23T00:48:06;97512.06;;;4.10;96.57
5062;BME280;2351;50.812;12.872;2023-02-23T00:50:41;97529.53;;;4.09;96.59
5062;BME280;2351;50.812;12.872;2023-02-23T00:53:13;97514.56;;;4.11;97.00
5062;BME280;2351;50.812;12.872;2023-02-23T00:55:44;97523.69;;;4.18;97.24
5062;BME280;2351;50.812;12.872;2023-02-23T00:58:16;97512.09;;;4.22;97.26
5062;BME280;2351;50.812;12.872;2023-02-23T01:00:48;97517.94;;;4.26;97.60
5062;BME280;2351;50.812;12.872;2023-02-23T01:03:20;97535.16;;;4.30;97.67
5062;BME280;2351;50.812;12.872;2023-02-23T01:05:53;97525.41;;;4.32;97.91
5062;BME280;2351;50.812;12.872;2023-02-23T01:08:25;97523.41;;;4.36;98.27
5062;BME280;2351;50.812;12.872;2023-02-23T01:10:57;97514.50;;;4.39;98.31
5062;BME280;2351;50.812;12.872;2023-02-23T01:13:29;97509.91;;;4.42;98.53
5062;BME280;2351;50.812;12.872;2023-02-23T01:16:03;97519.22;;;4.46;98.85
5062;BME280;2351;50.812;12.872;2023-02-23T01:18:37;97509.50;;;4.48;98.81
5062;BME280;2351;50.812;12.872;2023-02-23T01:21:15;97507.47;;;4.52;98.84
5062;BME280;2351;50.812;12.872;2023-02-23T01:23:47;97509.03;;;4.55;98.96
5062;BME280;2351;50.812;12.872;2023-02-23T01:26:21;97509.03;;;4.55;99.02
5062;BME280;2351;50.812;12.872;2023-02-23T01:28:55;97511.56;;;4.56;99.30
5062;BME280;2351;50.812;12.872;2023-02-23T01:31:28;97506.22;;;4.58;99.48
5062;BME280;2351;50.812;12.872;2023-02-23T01:34:01;97514.81;;;4.60;99.44
5062;BME280;2351;50.812;12.872;2023-02-23T01:36:36;97504.25;;;4.61;99.56
5062;BME280;2351;50.812;12.872;2023-02-23T01:39:11;97505.06;;;4.62;99.67
5062;BME280;2351;50.812;12.872;2023-02-23T01:41:43;97497.94;;;4.64;99.73
5062;BME280;2351;50.812;12.872;2023-02-23T01:47:24;97493.31;;;4.67;100.00
5062;BME280;2351;50.812;12.872;2023-02-23T01:49:56;97488.94;;;4.68;100.00
5062;BME280;2351;50.812;12.872;2023-02-23T01:52:29;97487.97;;;4.69;100.00
5062;BME280;2351;50.812;12.872;2023-02-23T01:55:03;97488.94;;;4.68;100.00
5062;BME280;2351;50.812;12.872;2023-02-23T01:57:35;97483.69;;;4.68;100.00
5062;BME280;2351;50.812;12.872;2023-02-23T02:00:08;97482.09;;;4.65;100.00
5062;BME280;2351;50.812;12.872;2023-02-23T02:02:43;97474.56;;;4.61;100.00
5062;BME280;2351;50.812;12.872;2023-02-23T02:05:15;97467.63;;;4.60;100.00
5062;BME280;2351;50.812;12.872;2023-02-23T02:07:50;97457.28;;;4.58;100.00
5062;BME280;2351;50.812;12.872;2023-02-23T02:10:28;97464.28;;;4.58;100.00
5062;BME280;2351;50.812;12.872;2023-02-23T02:13:18;97458.81;;;4.61;100.00
5062;BME280;2351;50.812;12.872;2023-02-23T02:16:14;97458.50;;;4.65;100.00
5062;BME280;2351;50.812;12.872;2023-02-23T02:19:12;97458.63;;;4.64;100.00
5062;BME280;2351;50.812;12.872;2023-02-23T02:22:13;97460.41;;;4.63;100.00
5062;BME280;2351;50.812;12.872;2023-02-23T02:25:20;97446.56;;;4.61;100.00
5062;BME280;2351;50.812;12.872;2023-02-23T02:31:29;97452.84;;;4.59;100.00
5062;BME280;2351;50.812;12.872;2023-02-23T02:34:24;97459.88;;;4.58;100.00
5062;BME280;2351;50.812;12.872;2023-02-23T02:37:30;97462.59;;;4.57;100.00
5062;BME280;2351;50.812;12.872;2023-02-23T02:40:08;97454.66;;;4.58;100.00
5062;BME280;2351;50.812;12.872;2023-02-23T02:43:00;97458.94;;;4.59;100.00
5062;BME280;2351;50.812;12.872;2023-02-23T02:45:43;97462.31;;;4.61;100.00
5062;BME280;2351;50.812;12.872;2023-02-23T02:48:27;97464.94;;;4.61;100.00
5062;BME280;2351;50.812;12.872;2023-02-23T02:51:05;97460.50;;;4.62;100.00
5062;BME280;2351;50.812;12.872;2023-02-23T02:53:45;97467.22;;;4.66;100.00
5062;BME280;2351;50.812;12.872;2023-02-23T02:56:21;97468.03;;;4.66;100.00
5062;BME280;2351;50.812;12.872;2023-02-23T02:58:54;97461.03;;;4.67;100.00
5062;BME280;2351;50.812;12.872;2023-02-23T03:01:29;97470.44;;;4.70;100.00
5062;BME280;2351;50.812;12.872;2023-02-23T03:04:20;97467.84;;;4.70;100.00
5062;BME280;2351;50.812;12.872;2023-02-23T03:07:15;97461.56;;;4.72;100.00
5062;BME280;2351;50.812;12.872;2023-02-23T03:10:13;97461.56;;;4.72;100.00
5062;BME280;2351;50.812;12.872;2023-02-23T03:13:14;97466.81;;;4.72;100.00
5062;BME280;2351;50.812;12.872;2023-02-23T03:16:17;97461.75;;;4.69;100.00
5062;BME280;2351;50.812;12.872;2023-02-23T03:19:13;97466.28;;;4.67;100.00
5062;BME280;2351;50.812;12.872;2023-02-23T03:22:16;97468.97;;;4.65;100.00
5062;BME280;2351;50.812;12.872;2023-02-23T03:25:10;97466.59;;;4.62;100.00
5062;BME280;2351;50.812;12.872;2023-02-23T03:28:09;97462.41;;;4.60;100.00
5062;BME280;2351;50.812;12.872;2023-02-23T03:31:06;97464.47;;;4.55;100.00
5062;BME280;2351;50.812;12.872;2023-02-23T03:34:02;97455.28;;;4.49;100.00
5062;BME280;2351;50.812;12.872;2023-02-23T03:37:00;97461.78;;;4.43;100.00
5062;BME280;2351;50.812;12.872;2023-02-23T03:39:56;97464.28;;;4.32;100.00
5062;BME280;2351;50.812;12.872;2023-02-23T03:42:51;97462.53;;;4.32;100.00
5062;BME280;2351;50.812;12.872;2023-02-23T03:45:43;97465.34;;;4.29;100.00
5062;BME280;2351;50.812;12.872;2023-02-23T03:48:35;97468.28;;;4.25;100.00
5062;BME280;2351;50.812;12.872;2023-02-23T03:51:26;97467.63;;;4.21;100.00
5062;BME280;2351;50.812;12.872;2023-02-23T03:54:19;97470.56;;;4.16;100.00
5062;BME280;2351;50.812;12.872;2023-02-23T03:57:15;97468.06;;;4.15;100.00
5062;BME280;2351;50.812;12.872;2023-02-23T04:00:11;97476.13;;;4.12;100.00
5062;BME280;2351;50.812;12.872;2023-02-23T04:03:02;97472.03;;;4.07;100.00
5062;BME280;2351;50.812;12.872;2023-02-23T04:05:53;97481.16;;;4.02;100.00
5062;BME280;2351;50.812;12.872;2023-02-23T04:08:45;97481.47;;;3.97;100.00
5062;BME280;2351;50.812;12.872;2023-02-23T04:11:39;97475.56;;;3.94;100.00
5062;BME280;2351;50.812;12.872;2023-02-23T04:14:36;97483.75;;;3.89;100.00
5062;BME280;2351;50.812;12.872;2023-02-23T04:17:11;97486.66;;;3.84;100.00
5062;BME280;2351;50.812;12.872;2023-02-23T04:19:48;97488.56;;;3.82;100.00
5062;BME280;2351;50.812;12.872;2023-02-23T04:22:21;97486.13;;;3.79;100.00
5062;BME280;2351;50.812;12.872;2023-02-23T04:24:52;97488.94;;;3.76;100.00
5062;BME280;2351;50.812;12.872;2023-02-23T04:27:24;97488.09;;;3.75;100.00
5062;BME280;2351;50.812;12.872;2023-02-23T04:29:56;97487.47;;;3.72;100.00
5062;BME280;2351;50.812;12.872;2023-02-23T04:32:29;97489.13;;;3.73;100.00
5062;BME280;2351;50.812;12.872;2023-02-23T04:35:01;97486.53;;;3.73;100.00
5062;BME280;2351;50.812;12.872;2023-02-23T04:37:33;97486.53;;;3.73;100.00
5062;BME280;2351;50.812;12.872;2023-02-23T04:40:06;97494.28;;;3.74;100.00
5062;BME280;2351;50.812;12.872;2023-02-23T04:42:38;97496.06;;;3.74;100.00
5062;BME280;2351;50.812;12.872;2023-02-23T04:45:10;97495.22;;;3.73;100.00
5062;BME280;2351;50.812;12.872;2023-02-23T04:47:44;97492.69;;;3.72;100.00
5062;BME280;2351;50.812;12.872;2023-02-23T04:50:16;97494.38;;;3.73;100.00
5062;BME280;2351;50.812;12.872;2023-02-23T04:52:48;97495.13;;;3.75;100.00
5062;BME280;2351;50.812;12.872;2023-02-23T04:55:24;97498.47;;;3.77;100.00
5062;BME280;2351;50.812;12.872;2023-02-23T04:57:57;97503.59;;;3.79;100.00
5062;BME280;2351;50.812;12.872;2023-02-23T05:00:29;97499.22;;;3.79;100.00
5062;BME280;2351;50.812;12.872;2023-02-23T05:03:04;97495.84;;;3.77;100.00
5062;BME280;2351;50.812;12.872;2023-02-23T05:05:36;97501.84;;;3.79;100.00
5062;BME280;2351;50.812;12.872;2023-02-23T05:08:08;97506.13;;;3.80;100.00
5062;BME280;2351;50.812;12.872;2023-02-23T05:10:40;97508.63;;;3.82;100.00
5062;BME280;2351;50.812;12.872;2023-02-23T05:13:12;97514.41;;;3.87;100.00
5062;BME280;2351;50.812;12.872;2023-02-23T05:15:44;97512.44;;;3.90;100.00
5062;BME280;2351;50.812;12.872;2023-02-23T05:18:17;97510.66;;;3.91;100.00
5062;BME280;2351;50.812;12.872;2023-02-23T05:20:48;97505.13;;;3.96;100.00
5062;BME280;2351;50.812;12.872;2023-02-23T05:23:20;97515.19;;;4.02;100.00
5062;BME280;2351;50.812;12.872;2023-02-23T05:25:52;97506.94;;;4.08;100.00
5062;BME280;2351;50.812;12.872;2023-02-23T05:28:23;97507.44;;;4.13;100.00
5062;BME280;2351;50.812;12.872;2023-02-23T05:30:55;97502.75;;;4.18;100.00
5062;BME280;2351;50.812;12.872;2023-02-23T05:33:28;97508.53;;;4.24;100.00
5062;BME280;2351;50.812;12.872;2023-02-23T05:36:03;97514.31;;;4.29;100.00
5062;BME280;2351;50.812;12.872;2023-02-23T05:38:35;97509.56;;;4.34;100.00
5062;BME280;2351;50.812;12.872;2023-02-23T05:41:07;97507.47;;;4.39;100.00
5062;BME280;2351;50.812;12.872;2023-02-23T05:43:39;97516.81;;;4.43;100.00
5062;BME280;2351;50.812;12.872;2023-02-23T05:46:14;97511.25;;;4.48;100.00
5062;BME280;2351;50.812;12.872;2023-02-23T05:48:47;97512.59;;;4.53;100.00
5062;BME280;2351;50.812;12.872;2023-02-23T05:51:19;97506.13;;;4.59;100.00
5062;BME280;2351;50.812;12.872;2023-02-23T05:53:51;97511.03;;;4.64;100.00
5062;BME280;2351;50.812;12.872;2023-02-23T05:56:22;97508.94;;;4.69;100.00
5062;BME280;2351;50.812;12.872;2023-02-23T05:58:55;97516.50;;;4.74;100.00
5062;BME280;2351;50.812;12.872;2023-02-23T06:01:27;97519.66;;;4.79;100.00
5062;BME280;2351;50.812;12.872;2023-02-23T06:04:00;97519.31;;;4.83;100.00
5062;BME280;2351;50.812;12.872;2023-02-23T06:06:32;97514.59;;;4.89;100.00
5062;BME280;2351;50.812;12.872;2023-02-23T06:09:04;97510.91;;;4.91;100.00
5062;BME280;2351;50.812;12.872;2023-02-23T06:11:36;97515.84;;;4.96;100.00
5062;BME280;2351;50.812;12.872;2023-02-23T06:14:07;97512.16;;;4.98;100.00
5062;BME280;2351;50.812;12.872;2023-02-23T06:16:39;97510.16;;;5.02;100.00
5062;BME280;2351;50.812;12.872;2023-02-23T06:19:12;97510.06;;;5.04;100.00
5062;BME280;2351;50.812;12.872;2023-02-23T06:21:44;97520.56;;;5.04;100.00
5062;BME280;2351;50.812;12.872;2023-02-23T06:24:16;97520.44;;;5.05;100.00
5062;BME280;2351;50.812;12.872;2023-02-23T06:26:48;97522.00;;;5.08;100.00
5062;BME280;2351;50.812;12.872;2023-02-23T06:29:20;97527.97;;;5.10;100.00
5062;BME280;2351;50.812;12.872;2023-02-23T06:31:52;97526.81;;;5.14;100.00
5062;BME280;2351;50.812;12.872;2023-02-23T06:34:25;97525.66;;;5.18;100.00
5062;BME280;2351;50.812;12.872;2023-02-23T06:36:57;97529.84;;;5.21;100.00
5062;BME280;2351;50.812;12.872;2023-02-23T06:39:28;97531.31;;;5.25;100.00
5062;BME280;2351;50.812;12.872;2023-02-23T06:42:00;97533.63;;;5.30;100.00
5062;BME280;2351;50.812;12.872;2023-02-23T06:44:32;97525.50;;;5.33;100.00
5062;BME280;2351;50.812;12.872;2023-02-23T06:47:05;97529.72;;;5.35;100.00
5062;BME280;2351;50.812;12.872;2023-02-23T06:49:38;97537.13;;;5.41;100.00
5062;BME280;2351;50.812;12.872;2023-02-23T06:52:10;97533.13;;;5.49;100.00
5062;BME280;2351;50.812;12.872;2023-02-23T06:54:42;97542.25;;;5.56;100.00
5062;BME280;2351;50.812;12.872;2023-02-23T06:57:14;97537.38;;;5.63;100.00
5062;BME280;2351;50.812;12.872;2023-02-23T06:59:46;97536.09;;;5.68;100.00
5062;BME280;2351;50.812;12.872;2023-02-23T07:02:18;97529.47;;;5.76;100.00
5062;BME280;2351;50.812;12.872;2023-02-23T07:04:51;97537.94;;;5.79;100.00
5062;BME280;2351;50.812;12.872;2023-02-23T07:07:23;97543.69;;;5.84;100.00
5062;BME280;2351;50.812;12.872;2023-02-23T07:09:54;97545.03;;;5.90;100.00
5062;BME280;2351;50.812;12.872;2023-02-23T07:12:26;97544.59;;;5.96;100.00
5062;BME280;2351;50.812;12.872;2023-02-23T07:14:58;97546.81;;;6.02;100.00
5062;BME280;2351;50.812;12.872;2023-02-23T07:17:29;97541.94;;;6.09;100.00
5062;BME280;2351;50.812;12.872;2023-02-23T07:20:03;97542.31;;;6.16;100.00
5062;BME280;2351;50.812;12.872;2023-02-23T07:22:35;97537.31;;;6.24;100.00
5062;BME280;2351;50.812;12.872;2023-02-23T07:25:07;97535.78;;;6.33;100.00
5062;BME280;2351;50.812;12.872;2023-02-23T07:27:39;97532.59;;;6.41;100.00
5062;BME280;2351;50.812;12.872;2023-02-23T07:30:13;97538.22;;;6.47;100.00
5062;BME280;2351;50.812;12.872;2023-02-23T07:32:48;97533.31;;;6.54;100.00
5062;BME280;2351;50.812;12.872;2023-02-23T07:35:21;97536.44;;;6.59;100.00
5062;BME280;2351;50.812;12.872;2023-02-23T07:37:53;97540.28;;;6.67;100.00
5062;BME280;2351;50.812;12.872;2023-02-23T07:40:25;97538.84;;;6.74;100.00
5062;BME280;2351;50.812;12.872;2023-02-23T07:42:57;97540.06;;;6.81;100.00
5062;BME280;2351;50.812;12.872;2023-02-23T07:45:29;97539.34;;;6.90;100.00
5062;BME280;2351;50.812;12.872;2023-02-23T07:48:01;97537.91;;;6.98;100.00
5062;BME280;2351;50.812;12.872;2023-02-23T07:50:34;97535.53;;;7.06;100.00
5062;BME280;2351;50.812;12.872;2023-02-23T07:53:06;97541.97;;;7.13;100.00
5062;BME280;2351;50.812;12.872;2023-02-23T07:55:38;97538.75;;;7.21;100.00
5062;BME280;2351;50.812;12.872;2023-02-23T07:58:10;97538.28;;;7.27;100.00
5062;BME280;2351;50.812;12.872;2023-02-23T08:00:42;97539.34;;;7.36;100.00
5062;BME280;2351;50.812;12.872;2023-02-23T08:03:14;97543.97;;;7.44;100.00
5062;BME280;2351;50.812;12.872;2023-02-23T08:05:47;97546.72;;;7.53;100.00
5062;BME280;2351;50.812;12.872;2023-02-23T08:08:19;97543.59;;;7.60;100.00
5062;BME280;2351;50.812;12.872;2023-02-23T08:10:50;97546.44;;;7.68;100.00
5062;BME280;2351;50.812;12.872;2023-02-23T08:13:29;97549.31;;;7.76;100.00
5062;BME280;2351;50.812;12.872;2023-02-23T08:16:02;97544.22;;;7.84;100.00
5062;BME280;2351;50.812;12.872;2023-02-23T08:18:34;97546.25;;;7.92;100.00
5062;BME280;2351;50.812;12.872;2023-02-23T08:21:07;97544.78;;;7.99;100.00
5062;BME280;2351;50.812;12.872;2023-02-23T08:23:39;97552.91;;;8.08;100.00
5062;BME280;2351;50.812;12.872;2023-02-23T08:26:10;97549.63;;;8.16;100.00
5062;BME280;2351;50.812;12.872;2023-02-23T08:28:42;97550.91;;;8.21;100.00
5062;BME280;2351;50.812;12.872;2023-02-23T08:31:15;97553.88;;;8.28;100.00
5062;BME280;2351;50.812;12.872;2023-02-23T08:33:51;97553.38;;;8.34;100.00
5062;BME280;2351;50.812;12.872;2023-02-23T08:36:24;97553.69;;;8.41;100.00
5062;BME280;2351;50.812;12.872;2023-02-23T08:38:56;97537.50;;;8.46;100.00
5062;BME280;2351;50.812;12.872;2023-02-23T08:41:29;97550.78;;;8.55;100.00
5062;BME280;2351;50.812;12.872;2023-02-23T08:44:01;97543.66;;;8.67;100.00
5062;BME280;2351;50.812;12.872;2023-02-23T08:46:33;97549.69;;;8.79;100.00
5062;BME280;2351;50.812;12.872;2023-02-23T08:49:05;97552.38;;;8.89;100.00
5062;BME280;2351;50.812;12.872;2023-02-23T08:51:41;97541.84;;;8.99;100.00
5062;BME280;2351;50.812;12.872;2023-02-23T08:54:13;97542.00;;;9.07;100.00
5062;BME280;2351;50.812;12.872;2023-02-23T08:56:45;97536.91;;;9.15;100.00
5062;BME280;2351;50.812;12.872;2023-02-23T08:59:17;97542.22;;;9.25;100.00
5062;BME280;2351;50.812;12.872;2023-02-23T09:01:48;97534.88;;;9.29;100.00
5062;BME280;2351;50.812;12.872;2023-02-23T09:04:20;97542.41;;;9.33;100.00
5062;BME280;2351;50.812;12.872;2023-02-23T09:06:53;97541.84;;;9.40;100.00
5062;BME280;2351;50.812;12.872;2023-02-23T09:09:25;97543.28;;;9.54;100.00
5062;BME280;2351;50.812;12.872;2023-02-23T09:11:57;97544.44;;;9.71;100.00
5062;BME280;2351;50.812;12.872;2023-02-23T09:14:29;97549.31;;;9.85;100.00
5062;BME280;2351;50.812;12.872;2023-02-23T09:17:01;97540.41;;;9.96;100.00
5062;BME280;2351;50.812;12.872;2023-02-23T09:19:33;97536.00;;;10.06;100.00
5062;BME280;2351;50.812;12.872;2023-02-23T09:22:06;97543.78;;;10.08;100.00
5062;BME280;2351;50.812;12.872;2023-02-23T09:24:38;97540.03;;;10.20;100.00
5062;BME280;2351;50.812;12.872;2023-02-23T09:27:10;97544.88;;;10.35;100.00
5062;BME280;2351;50.812;12.872;2023-02-23T09:29:44;97536.25;;;10.52;100.00
5062;BME280;2351;50.812;12.872;2023-02-23T09:32:16;97527.88;;;10.67;100.00
5062;BME280;2351;50.812;12.872;2023-02-23T09:34:47;97537.03;;;10.82;100.00
5062;BME280;2351;50.812;12.872;2023-02-23T09:37:23;97538.47;;;11.05;100.00
5062;BME280;2351;50.812;12.872;2023-02-23T09:39:55;97532.44;;;11.22;100.00
5062;BME280;2351;50.812;12.872;2023-02-23T09:42:35;97538.06;;;11.37;100.00
5062;BME280;2351;50.812;12.872;2023-02-23T09:45:17;97538.41;;;11.52;100.00
5062;BME280;2351;50.812;12.872;2023-02-23T09:48:06;97547.59;;;11.58;100.00
5062;BME280;2351;50.812;12.872;2023-02-23T09:50:41;97543.34;;;11.65;100.00
5062;BME280;2351;50.812;12.872;2023-02-23T09:53:26;97534.28;;;11.86;100.00
5062;BME280;2351;50.812;12.872;2023-02-23T09:56:03;97533.09;;;11.98;100.00
5062;BME280;2351;50.812;12.872;2023-02-23T09:58:37;97533.56;;;12.12;100.00
5062;BME280;2351;50.812;12.872;2023-02-23T10:01:41;97531.91;;;12.29;100.00
5062;BME280;2351;50.812;12.872;2023-02-23T10:04:17;97536.53;;;12.27;97.72
5062;BME280;2351;50.812;12.872;2023-02-23T10:06:57;97538.66;;;12.23;93.01
5062;BME280;2351;50.812;12.872;2023-02-23T10:09:42;97536.00;;;12.23;93.05
5062;BME280;2351;50.812;12.872;2023-02-23T10:12:22;97537.81;;;12.23;90.82
5062;BME280;2351;50.812;12.872;2023-02-23T10:15:13;97537.59;;;12.16;89.21
5062;BME280;2351;50.812;12.872;2023-02-23T10:17:57;97537.97;;;12.21;90.21
5062;BME280;2351;50.812;12.872;2023-02-23T10:20:39;97547.44;;;12.24;88.00
5062;BME280;2351;50.812;12.872;2023-02-23T10:23:17;97538.63;;;12.41;90.75
5062;BME280;2351;50.812;12.872;2023-02-23T10:25:54;97544.00;;;12.49;89.54
5062;BME280;2351;50.812;12.872;2023-02-23T10:28:33;97538.53;;;12.51;87.60
5062;BME280;2351;50.812;12.872;2023-02-23T10:31:18;97533.09;;;12.53;83.59
5062;BME280;2351;50.812;12.872;2023-02-23T10:33:56;97539.28;;;12.61;83.39
5062;BME280;2351;50.812;12.872;2023-02-23T10:36:34;97533.47;;;12.58;83.76
5062;BME280;2351;50.812;12.872;2023-02-23T10:39:07;97537.31;;;12.63;83.70
5062;BME280;2351;50.812;12.872;2023-02-23T10:41:41;97534.28;;;12.58;82.76
5062;BME280;2351;50.812;12.872;2023-02-23T10:44:17;97538.84;;;12.48;80.50
5062;BME280;2351;50.812;12.872;2023-02-23T10:46:53;97537.81;;;12.41;82.01
5062;BME280;2351;50.812;12.872;2023-02-23T10:49:29;97543.41;;;12.38;82.18
5062;BME280;2351;50.812;12.872;2023-02-23T10:52:07;97542.22;;;12.32;80.55
5062;BME280;2351;50.812;12.872;2023-02-23T10:54:44;97536.00;;;12.23;79.45
5062;BME280;2351;50.812;12.872;2023-02-23T10:57:23;97537.28;;;12.19;79.99
5062;BME280;2351;50.812;12.872;2023-02-23T11:00:05;97538.41;;;12.16;79.96
5062;BME280;2351;50.812;12.872;2023-02-23T11:02:37;97532.38;;;12.06;79.77
5062;BME280;2351;50.812;12.872;2023-02-23T11:05:32;97538.41;;;11.98;79.82
5062;BME280;2351;50.812;12.872;2023-02-23T11:08:09;97531.44;;;11.97;80.11
5062;BME280;2351;50.812;12.872;2023-02-23T11:10:41;97529.22;;;11.93;80.16
5062;BME280;2351;50.812;12.872;2023-02-23T11:13:22;97530.81;;;11.85;80.12
5062;BME280;2351;50.812;12.872;2023-02-23T11:15:59;97530.44;;;11.80;80.07
5062;BME280;2351;50.812;12.872;2023-02-23T11:18:32;97525.59;;;11.75;79.89
5062;BME280;2351;50.812;12.872;2023-02-23T11:21:08;97530.19;;;11.73;80.57
5062;BME280;2351;50.812;12.872;2023-02-23T11:23:41;97520.97;;;11.78;81.27
5062;BME280;2351;50.812;12.872;2023-02-23T11:26:21;97518.38;;;11.86;81.37
5062;BME280;2351;50.812;12.872;2023-02-23T11:28:57;97518.31;;;11.96;81.64
5062;BME280;2351;50.812;12.872;2023-02-23T11:31:31;97511.66;;;12.10;82.01
5062;BME280;2351;50.812;12.872;2023-02-23T11:34:05;97510.13;;;12.25;81.87
5062;BME280;2351;50.812;12.872;2023-02-23T11:36:37;97503.75;;;12.36;81.63
5062;BME280;2351;50.812;12.872;2023-02-23T11:39:18;97500.34;;;12.44;80.94
5062;BME280;2351;50.812;12.872;2023-02-23T11:42:16;97491.59;;;12.52;81.05
5062;BME280;2351;50.812;12.872;2023-02-23T11:44:51;97498.28;;;12.56;80.95
5062;BME280;2351;50.812;12.872;2023-02-23T11:47:23;97490.66;;;12.61;80.75
5062;BME280;2351;50.812;12.872;2023-02-23T11:49:55;97491.19;;;12.64;80.53
5062;BME280;2351;50.812;12.872;2023-02-23T11:52:27;97487.88;;;12.62;80.25
5062;BME280;2351;50.812;12.872;2023-02-23T11:55:04;97487.00;;;12.62;78.83
5062;BME280;2351;50.812;12.872;2023-02-23T11:57:37;97488.00;;;12.61;78.37
5062;BME280;2351;50.812;12.872;2023-02-23T12:00:19;97488.53;;;12.64;79.42
5062;BME280;2351;50.812;12.872;2023-02-23T12:02:54;97484.91;;;12.65;78.99
5062;BME280;2351;50.812;12.872;2023-02-23T12:05:29;97483.69;;;12.60;78.59
5062;BME280;2351;50.812;12.872;2023-02-23T12:08:04;97485.88;;;12.64;78.33
5062;BME280;2351;50.812;12.872;2023-02-23T12:10:40;97482.69;;;12.61;78.17
5062;BME280;2351;50.812;12.872;2023-02-23T12:13:22;97491.97;;;12.57;77.80
5062;BME280;2351;50.812;12.872;2023-02-23T12:15:59;97482.66;;;12.53;77.73
5062;BME280;2351;50.812;12.872;2023-02-23T12:18:42;97487.97;;;12.53;78.05
5062;BME280;2351;50.812;12.872;2023-02-23T12:21:26;97485.44;;;12.51;77.44
5062;BME280;2351;50.812;12.872;2023-02-23T12:24:09;97482.44;;;12.46;77.46
5062;BME280;2351;50.812;12.872;2023-02-23T12:26:47;97478.94;;;12.45;77.81
5062;BME280;2351;50.812;12.872;2023-02-23T12:29:26;97479.25;;;12.42;77.78
5062;BME280;2351;50.812;12.872;2023-02-23T12:32:09;97480.78;;;12.45;77.92
5062;BME280;2351;50.812;12.872;2023-02-23T12:34:46;97473.84;;;12.52;78.23
5062;BME280;2351;50.812;12.872;2023-02-23T12:37:29;97468.44;;;12.62;78.54
5062;BME280;2351;50.812;12.872;2023-02-23T12:40:13;97467.56;;;12.79;78.68
5062;BME280;2351;50.812;12.872;2023-02-23T12:42:53;97468.31;;;12.98;79.18
5062;BME280;2351;50.812;12.872;2023-02-23T12:45:34;97461.31;;;12.97;76.96
5062;BME280;2351;50.812;12.872;2023-02-23T12:48:14;97460.97;;;12.92;76.80
5062;BME280;2351;50.812;12.872;2023-02-23T12:50:51;97460.66;;;12.95;77.13
5062;BME280;2351;50.812;12.872;2023-02-23T12:53:26;97458.81;;;12.95;77.06
5062;BME280;2351;50.812;12.872;2023-02-23T12:56:08;97464.47;;;13.01;77.21
5062;BME280;2351;50.812;12.872;2023-02-23T12:58:47;97459.97;;;12.93;75.57
5062;BME280;2351;50.812;12.872;2023-02-23T13:01:23;97462.25;;;12.79;76.16
5062;BME280;2351;50.812;12.872;2023-02-23T13:07:14;97449.41;;;12.75;76.46
5062;BME280;2351;50.812;12.872;2023-02-23T13:09:59;97450.78;;;12.79;77.25
5062;BME280;2351;50.812;12.872;2023-02-23T13:12:50;97457.00;;;12.96;77.47
5062;BME280;2351;50.812;12.872;2023-02-23T13:15:30;97445.63;;;13.12;77.93
5062;BME280;2351;50.812;12.872;2023-02-23T13:18:10;97453.59;;;13.20;77.32
5062;BME280;2351;50.812;12.872;2023-02-23T13:20:48;97449.13;;;13.21;76.94
5062;BME280;2351;50.812;12.872;2023-02-23T13:23:26;97451.78;;;13.21;76.84
5062;BME280;2351;50.812;12.872;2023-02-23T13:26:09;97447.47;;;13.20;76.28
5062;BME280;2351;50.812;12.872;2023-02-23T13:28:50;97447.75;;;13.08;75.17
5062;BME280;2351;50.812;12.872;2023-02-23T13:31:30;97453.53;;;13.04;75.36
5062;BME280;2351;50.812;12.872;2023-02-23T13:34:05;97451.84;;;12.94;75.29
5062;BME280;2351;50.812;12.872;2023-02-23T13:36:41;97451.50;;;12.89;75.29
5062;BME280;2351;50.812;12.872;2023-02-23T13:39:39;97447.00;;;12.90;75.28
5062;BME280;2351;50.812;12.872;2023-02-23T13:42:29;97447.00;;;12.90;75.48
5062;BME280;2351;50.812;12.872;2023-02-23T13:45:37;97446.81;;;12.83;75.08
5062;BME280;2351;50.812;12.872;2023-02-23T13:48:18;97451.09;;;12.76;75.16
5062;BME280;2351;50.812;12.872;2023-02-23T13:51:00;97443.81;;;12.78;75.41
5062;BME280;2351;50.812;12.872;2023-02-23T13:53:40;97449.09;;;12.78;75.26
5062;BME280;2351;50.812;12.872;2023-02-23T13:56:15;97442.13;;;12.77;75.29
5062;BME280;2351;50.812;12.872;2023-02-23T13:58:50;97442.63;;;12.72;75.24
5062;BME280;2351;50.812;12.872;2023-02-23T14:01:28;97440.28;;;12.69;75.34
5062;BME280;2351;50.812;12.872;2023-02-23T14:04:02;97437.78;;;12.68;75.35
5062;BME280;2351;50.812;12.872;2023-02-23T14:06:34;97440.44;;;12.68;75.50
5062;BME280;2351;50.812;12.872;2023-02-23T14:09:09;97433.66;;;12.73;75.78
5062;BME280;2351;50.812;12.872;2023-02-23T14:11:45;97434.53;;;12.82;75.99
5062;BME280;2351;50.812;12.872;2023-02-23T14:14:37;97436.69;;;12.87;75.88
5062;BME280;2351;50.812;12.872;2023-02-23T14:17:39;97431.25;;;12.88;75.51